createdAt,value
2023-11-10T00:00:51.774Z,6.90
2023-11-10T00:01:51.766Z,6.93
2023-11-10T00:02:51.799Z,6.86
2023-11-10T00:03:52.001Z,6.91
2023-11-10T00:04:51.894Z,6.93
2023-11-10T00:05:51.844Z,6.83
2023-11-10T00:06:51.728Z,6.90
2023-11-10T00:07:51.745Z,6.89
2023-11-10T00:08:51.728Z,6.90
2023-11-10T00:09:51.717Z,6.83
2023-11-10T00:10:51.719Z,6.83
2023-11-10T00:11:51.721Z,6.89
2023-11-10T00:12:51.706Z,6.93
2023-11-10T00:13:53.742Z,6.82
2023-11-10T00:14:51.693Z,6.86
2023-11-10T00:15:51.732Z,6.91
2023-11-10T00:16:51.683Z,6.94
2023-11-10T00:17:51.696Z,6.94
2023-11-10T00:18:51.669Z,6.90
2023-11-10T00:19:51.666Z,6.86
2023-11-10T00:20:51.661Z,6.93
2023-11-10T00:21:51.656Z,6.90
2023-11-10T00:22:51.648Z,6.89
2023-11-10T00:23:51.650Z,6.87
2023-11-10T00:24:51.642Z,6.94
2023-11-10T00:25:51.637Z,6.91
2023-11-10T00:26:51.627Z,6.83
2023-11-10T00:27:51.625Z,6.89
2023-11-10T00:28:51.621Z,6.87
2023-11-10T00:29:51.612Z,6.94
2023-11-10T00:30:51.626Z,6.87
2023-11-10T00:31:51.604Z,6.87
2023-11-10T00:32:51.669Z,6.89
2023-11-10T00:33:51.698Z,6.81
2023-11-10T00:34:51.589Z,6.83
2023-11-10T00:35:51.582Z,6.69
2023-11-10T00:36:51.582Z,6.73
2023-11-10T00:37:51.587Z,6.72
2023-11-10T00:38:51.563Z,6.75
2023-11-10T00:39:51.561Z,6.72
2023-11-10T00:40:51.556Z,6.75
2023-11-10T00:41:51.553Z,6.69
2023-11-10T00:42:51.549Z,6.75
2023-11-10T00:43:51.538Z,6.73
2023-11-10T00:44:51.534Z,6.83
2023-11-10T00:45:51.532Z,6.81
2023-11-10T00:46:51.527Z,6.71
2023-11-10T00:47:51.553Z,6.75
2023-11-10T00:48:51.535Z,6.72
2023-11-10T00:49:51.524Z,6.71
2023-11-10T00:50:51.505Z,6.71
2023-11-10T00:51:51.505Z,6.73
2023-11-10T00:52:51.495Z,6.78
2023-11-10T00:53:51.492Z,6.72
2023-11-10T00:54:51.485Z,6.69
2023-11-10T00:55:51.485Z,6.73
2023-11-10T00:56:51.481Z,6.75
2023-11-10T00:57:51.473Z,6.78
2023-11-10T00:58:51.466Z,6.71
2023-11-10T00:59:51.475Z,6.76
2023-11-10T01:00:53.027Z,6.69
2023-11-10T01:01:51.463Z,6.76
2023-11-10T01:02:51.568Z,6.82
2023-11-10T01:03:51.548Z,6.71
2023-11-10T01:04:51.457Z,6.72
2023-11-10T01:05:51.454Z,6.73
2023-11-10T01:06:51.516Z,6.76
2023-11-10T01:07:51.425Z,6.79
2023-11-10T01:08:51.420Z,6.73
2023-11-10T01:09:51.409Z,6.79
2023-11-10T01:10:51.400Z,6.72
2023-11-10T01:11:51.395Z,6.72
2023-11-10T01:12:51.396Z,6.72
2023-11-10T01:13:51.391Z,6.73
2023-11-10T01:14:51.377Z,6.71
2023-11-10T01:15:51.375Z,6.76
2023-11-10T01:16:51.465Z,6.75
2023-11-10T01:17:51.401Z,6.69
2023-11-10T01:18:51.467Z,6.73
2023-11-10T01:19:51.357Z,6.81
2023-11-10T01:20:51.346Z,6.81
2023-11-10T01:21:51.383Z,6.78
2023-11-10T01:22:51.334Z,6.86
2023-11-10T01:23:51.334Z,6.76
2023-11-10T01:24:51.345Z,6.71
2023-11-10T01:25:51.337Z,6.78
2023-11-10T01:26:51.336Z,6.89
2023-11-10T01:27:51.311Z,6.79
2023-11-10T01:28:51.308Z,6.86
2023-11-10T01:29:51.302Z,6.86
2023-11-10T01:30:51.352Z,6.86
2023-11-10T01:31:51.290Z,6.86
2023-11-10T01:32:51.345Z,6.83
2023-11-10T01:33:51.334Z,6.81
2023-11-10T01:34:51.271Z,6.83
2023-11-10T01:35:51.268Z,6.87
2023-11-10T01:36:51.264Z,6.86
2023-11-10T01:37:51.259Z,6.93
2023-11-10T01:38:51.260Z,6.87
2023-11-10T01:39:51.262Z,6.86
2023-11-10T01:40:51.241Z,6.82
2023-11-10T01:41:51.239Z,6.94
2023-11-10T01:42:51.236Z,6.87
2023-11-10T01:43:51.224Z,6.96
2023-11-10T01:44:51.311Z,6.97
2023-11-10T01:45:51.271Z,6.93
2023-11-10T01:46:51.374Z,6.89
2023-11-10T01:47:51.210Z,6.90
2023-11-10T01:48:51.303Z,6.86
2023-11-10T01:49:51.197Z,6.89
2023-11-10T01:50:51.188Z,6.83
2023-11-10T01:51:51.187Z,6.89
2023-11-10T01:52:51.181Z,6.83
2023-11-10T01:53:51.179Z,6.82
2023-11-10T01:54:51.207Z,6.83
2023-11-10T01:55:51.171Z,6.83
2023-11-10T01:56:51.157Z,6.86
2023-11-10T01:57:51.153Z,6.87
2023-11-10T01:58:51.148Z,6.90
2023-11-10T01:59:51.139Z,6.89
2023-11-10T02:00:51.255Z,6.90
2023-11-10T02:01:51.214Z,6.94
2023-11-10T02:02:51.289Z,6.96
2023-11-10T02:03:51.242Z,6.90
2023-11-10T02:04:51.113Z,6.87
2023-11-10T02:05:51.114Z,6.89
2023-11-10T02:06:51.152Z,6.97
2023-11-10T02:07:51.114Z,6.89
2023-11-10T02:08:51.101Z,7.00
2023-11-10T02:09:51.121Z,6.89
2023-11-10T02:10:51.082Z,6.91
2023-11-10T02:11:51.081Z,6.81
2023-11-10T02:12:51.074Z,6.87
2023-11-10T02:13:51.068Z,6.82
2023-11-10T02:14:51.083Z,6.87
2023-11-10T02:15:51.122Z,6.86
2023-11-10T02:16:51.061Z,6.87
2023-11-10T02:17:51.073Z,6.87
2023-11-10T02:18:51.066Z,6.86
2023-11-10T02:19:51.038Z,6.90
2023-11-10T02:20:51.030Z,6.86
2023-11-10T02:21:51.055Z,6.87
2023-11-10T02:22:51.062Z,6.83
2023-11-10T02:23:51.015Z,6.86
2023-11-10T02:24:51.040Z,6.82
2023-11-10T02:25:51.012Z,6.86
2023-11-10T02:26:50.995Z,6.86
2023-11-10T02:27:51.024Z,6.86
2023-11-10T02:28:50.987Z,6.83
2023-11-10T02:29:50.978Z,6.81
2023-11-10T02:30:51.033Z,6.79
2023-11-10T02:31:50.992Z,6.82
2023-11-10T02:32:51.035Z,6.76
2023-11-10T02:33:51.008Z,6.71
2023-11-10T02:34:50.954Z,6.73
2023-11-10T02:35:50.952Z,6.69
2023-11-10T02:36:51.016Z,6.69
2023-11-10T02:37:50.955Z,6.78
2023-11-10T02:38:50.929Z,6.76
2023-11-10T02:39:50.951Z,6.83
2023-11-10T02:40:50.924Z,6.81
2023-11-10T02:41:50.924Z,6.75
2023-11-10T02:42:50.913Z,6.72
2023-11-10T02:43:50.908Z,6.72
2023-11-10T02:44:50.915Z,6.69
2023-11-10T02:45:50.946Z,6.78
2023-11-10T02:46:50.890Z,6.76
2023-11-10T02:47:50.985Z,6.76
2023-11-10T02:48:50.911Z,6.78
2023-11-10T02:49:50.893Z,6.69
2023-11-10T02:50:50.875Z,6.72
2023-11-10T02:51:50.869Z,6.69
2023-11-10T02:52:50.857Z,6.69
2023-11-10T02:53:50.856Z,6.73
2023-11-10T02:54:50.848Z,6.78
2023-11-10T02:55:50.845Z,6.73
2023-11-10T02:56:50.838Z,6.75
2023-11-10T02:57:50.866Z,6.78
2023-11-10T02:58:50.828Z,6.73
2023-11-10T02:59:51.113Z,6.73
2023-11-10T03:00:50.856Z,6.76
2023-11-10T03:01:50.877Z,6.87
2023-11-10T03:02:50.833Z,6.78
2023-11-10T03:03:50.901Z,6.72
2023-11-10T03:04:50.806Z,6.76
2023-11-10T03:05:50.797Z,6.71
2023-11-10T03:06:50.807Z,6.78
2023-11-10T03:07:50.790Z,6.78
2023-11-10T03:08:50.786Z,6.73
2023-11-10T03:09:50.849Z,6.72
2023-11-10T03:10:50.770Z,6.60
2023-11-10T03:11:50.761Z,6.61
2023-11-10T03:12:50.801Z,6.73
2023-11-10T03:13:50.753Z,6.63
2023-11-10T03:14:50.758Z,6.61
2023-11-10T03:15:50.854Z,6.63
2023-11-10T03:16:50.742Z,6.63
2023-11-10T03:17:50.796Z,6.64
2023-11-10T03:18:50.771Z,6.60
2023-11-10T03:19:50.725Z,6.72
2023-11-10T03:20:50.717Z,6.65
2023-11-10T03:21:50.804Z,6.61
2023-11-10T03:22:50.746Z,6.75
2023-11-10T03:23:50.706Z,6.68
2023-11-10T03:24:50.742Z,6.75
2023-11-10T03:25:50.687Z,6.63
2023-11-10T03:26:50.684Z,6.65
2023-11-10T03:27:50.719Z,6.65
2023-11-10T03:28:50.677Z,6.65
2023-11-10T03:29:50.670Z,6.60
2023-11-10T03:30:50.678Z,6.68
2023-11-10T03:31:50.776Z,6.63
2023-11-10T03:32:50.674Z,6.65
2023-11-10T03:33:50.816Z,6.65
2023-11-10T03:34:50.646Z,6.63
2023-11-10T03:35:50.639Z,6.64
2023-11-10T03:36:50.669Z,6.61
2023-11-10T03:37:50.630Z,6.71
2023-11-10T03:38:50.621Z,6.61
2023-11-10T03:39:50.713Z,6.65
2023-11-10T03:40:50.612Z,6.65
2023-11-10T03:41:50.619Z,6.64
2023-11-10T03:42:50.658Z,6.69
2023-11-10T03:43:50.606Z,6.61
2023-11-10T03:44:50.603Z,6.65
2023-11-10T03:45:50.694Z,6.64
2023-11-10T03:46:50.585Z,6.60
2023-11-10T03:47:50.699Z,6.61
2023-11-10T03:48:50.609Z,6.69
2023-11-10T03:49:50.582Z,6.61
2023-11-10T03:50:50.560Z,6.64
2023-11-10T03:51:50.577Z,6.71
2023-11-10T03:52:50.564Z,6.64
2023-11-10T03:53:50.543Z,6.63
2023-11-10T03:54:50.615Z,6.60
2023-11-10T03:55:50.533Z,6.64
2023-11-10T03:56:50.540Z,6.63
2023-11-10T03:57:50.557Z,6.68
2023-11-10T03:58:50.539Z,6.69
2023-11-10T03:59:50.513Z,6.65
2023-11-10T04:00:50.550Z,6.68
2023-11-10T04:01:50.519Z,6.71
2023-11-10T04:02:50.518Z,6.58
2023-11-10T04:03:50.586Z,6.57
2023-11-10T04:04:50.492Z,6.65
2023-11-10T04:05:50.496Z,6.64
2023-11-10T04:06:50.563Z,6.63
2023-11-10T04:07:50.550Z,6.68
2023-11-10T04:08:50.475Z,6.58
2023-11-10T04:09:50.520Z,6.58
2023-11-10T04:10:50.464Z,6.60
2023-11-10T04:11:50.450Z,6.63
2023-11-10T04:12:50.466Z,6.61
2023-11-10T04:13:50.447Z,6.63
2023-11-10T04:14:50.455Z,6.75
2023-11-10T04:15:50.493Z,6.63
2023-11-10T04:16:50.482Z,6.61
2023-11-10T04:17:50.439Z,6.64
2023-11-10T04:18:50.428Z,6.63
2023-11-10T04:19:50.421Z,6.64
2023-11-10T04:20:50.405Z,6.64
2023-11-10T04:21:50.433Z,6.64
2023-11-10T04:22:50.400Z,6.61
2023-11-10T04:23:50.398Z,6.57
2023-11-10T04:24:50.428Z,6.61
2023-11-10T04:25:50.392Z,6.60
2023-11-10T04:26:50.375Z,6.60
2023-11-10T04:27:50.417Z,6.60
2023-11-10T04:28:50.360Z,6.60
2023-11-10T04:29:50.361Z,6.71
2023-11-10T04:30:50.486Z,6.73
2023-11-10T04:31:50.426Z,6.71
2023-11-10T04:32:50.875Z,6.76
2023-11-10T04:33:50.452Z,6.75
2023-11-10T04:34:52.677Z,6.71
2023-11-10T04:35:50.327Z,6.69
2023-11-10T04:36:50.345Z,6.73
2023-11-10T04:37:50.319Z,6.75
2023-11-10T04:38:50.313Z,6.71
2023-11-10T04:39:50.335Z,6.75
2023-11-10T04:40:50.311Z,6.69
2023-11-10T04:41:50.298Z,6.78
2023-11-10T04:42:50.338Z,6.73
2023-11-10T04:43:50.290Z,6.76
2023-11-10T04:44:50.284Z,6.78
2023-11-10T04:45:50.304Z,6.76
2023-11-10T04:46:50.329Z,6.75
2023-11-10T04:47:50.301Z,6.75
2023-11-10T04:48:50.283Z,6.78
2023-11-10T04:49:50.280Z,6.79
2023-11-10T04:50:50.268Z,6.73
2023-11-10T04:51:50.310Z,6.78
2023-11-10T04:52:50.243Z,6.73
2023-11-10T04:53:50.245Z,6.72
2023-11-10T04:54:50.252Z,6.72
2023-11-10T04:55:50.230Z,6.63
2023-11-10T04:56:50.230Z,6.63
2023-11-10T04:57:50.271Z,6.73
2023-11-10T04:58:50.242Z,6.71
2023-11-10T04:59:50.204Z,6.75
2023-11-10T05:00:50.209Z,6.71
2023-11-10T05:01:50.263Z,6.75
2023-11-10T05:02:50.220Z,6.73
2023-11-10T05:03:50.241Z,6.72
2023-11-10T05:04:50.181Z,6.63
2023-11-10T05:05:50.181Z,6.63
2023-11-10T05:06:50.204Z,6.58
2023-11-10T05:07:50.175Z,6.72
2023-11-10T05:08:50.157Z,6.64
2023-11-10T05:09:50.196Z,6.64
2023-11-10T05:10:50.164Z,6.63
2023-11-10T05:11:50.164Z,6.72
2023-11-10T05:12:50.186Z,6.63
2023-11-10T05:13:50.132Z,6.61
2023-11-10T05:14:50.128Z,6.64
2023-11-10T05:15:50.156Z,6.61
2023-11-10T05:16:50.213Z,6.63
2023-11-10T05:17:50.140Z,6.58
2023-11-10T05:19:50.112Z,6.63
2023-11-10T05:20:50.098Z,6.60
2023-11-10T05:21:50.162Z,6.58
2023-11-10T05:22:50.098Z,6.58
2023-11-10T05:23:50.081Z,6.61
2023-11-10T05:24:50.096Z,6.60
2023-11-10T05:25:50.070Z,6.63
2023-11-10T05:26:50.065Z,6.58
2023-11-10T05:27:50.090Z,6.71
2023-11-10T05:28:50.057Z,6.72
2023-11-10T05:29:50.051Z,6.68
2023-11-10T05:30:50.086Z,6.78
2023-11-10T05:31:50.060Z,6.76
2023-11-10T05:32:50.085Z,6.71
2023-11-10T05:33:50.051Z,6.72
2023-11-10T05:34:51.299Z,6.78
2023-11-10T05:35:50.017Z,6.71
2023-11-10T05:36:50.027Z,6.78
2023-11-10T05:37:50.008Z,6.71
2023-11-10T05:38:50.041Z,6.71
2023-11-10T05:39:50.023Z,6.78
2023-11-10T05:40:50.011Z,6.73
2023-11-10T05:41:49.987Z,6.86
2023-11-10T05:42:50.009Z,6.81
2023-11-10T05:43:49.973Z,6.76
2023-11-10T05:44:49.972Z,6.73
2023-11-10T05:45:50.004Z,6.72
2023-11-10T05:46:49.962Z,6.76
2023-11-10T05:47:50.047Z,6.87
2023-11-10T05:48:49.984Z,6.79
2023-11-10T05:49:49.943Z,6.72
2023-11-10T05:50:49.943Z,6.72
2023-11-10T05:51:49.973Z,6.72
2023-11-10T05:52:49.928Z,6.71
2023-11-10T05:53:49.924Z,6.73
2023-11-10T05:54:49.927Z,6.81
2023-11-10T05:55:49.912Z,6.72
2023-11-10T05:56:49.911Z,6.83
2023-11-10T05:57:49.959Z,6.82
2023-11-10T05:58:49.896Z,6.79
2023-11-10T05:59:49.892Z,6.72
2023-11-10T06:00:49.918Z,6.81
2023-11-10T06:01:49.923Z,6.86
2023-11-10T06:02:51.586Z,6.87
2023-11-10T06:03:50.005Z,6.82
2023-11-10T06:04:49.986Z,6.86
2023-11-10T06:05:49.861Z,6.76
2023-11-10T06:06:49.916Z,6.73
2023-11-10T06:07:49.855Z,6.76
2023-11-10T06:08:49.857Z,6.69
2023-11-10T06:09:49.869Z,6.81
2023-11-10T06:11:55.500Z,6.83
2023-11-10T06:12:49.853Z,6.73
2023-11-10T06:13:49.837Z,6.86
2023-11-10T06:14:49.815Z,6.83
2023-11-10T06:15:49.860Z,6.83
2023-11-10T06:16:49.972Z,6.86
2023-11-10T06:17:49.821Z,6.87
2023-11-10T06:18:49.832Z,6.81
2023-11-10T06:19:49.793Z,6.90
2023-11-10T06:20:49.789Z,6.83
2023-11-10T06:21:49.857Z,6.72
2023-11-10T06:22:49.777Z,6.81
2023-11-10T06:23:49.768Z,6.76
2023-11-10T06:24:49.774Z,6.82
2023-11-10T06:25:49.764Z,6.81
2023-11-10T06:27:55.003Z,6.82
2023-11-10T06:28:49.743Z,6.86
2023-11-10T06:29:49.739Z,6.78
2023-11-10T06:30:49.767Z,6.86
2023-11-10T06:31:49.740Z,6.83
2023-11-10T06:32:49.745Z,6.87
2023-11-10T06:33:49.784Z,6.91
2023-11-10T06:34:49.717Z,6.91
2023-11-10T06:35:49.714Z,6.90
2023-11-10T06:36:49.741Z,6.89
2023-11-10T06:37:49.696Z,6.86
2023-11-10T06:38:49.689Z,6.87
2023-11-10T06:39:49.736Z,6.83
2023-11-10T06:40:49.725Z,6.90
2023-11-10T06:41:49.672Z,6.83
2023-11-10T06:42:49.740Z,6.86
2023-11-10T06:43:49.689Z,6.91
2023-11-10T06:44:49.659Z,6.83
2023-11-10T06:45:49.700Z,6.87
2023-11-10T06:46:49.717Z,6.87
2023-11-10T06:47:49.691Z,6.99
2023-11-10T06:48:49.676Z,6.87
2023-11-10T06:49:49.832Z,6.87
2023-11-10T06:50:49.633Z,6.91
2023-11-10T06:51:49.669Z,6.91
2023-11-10T06:52:49.620Z,6.90
2023-11-10T06:53:49.628Z,6.93
2023-11-10T06:54:50.392Z,6.94
2023-11-10T06:55:49.621Z,6.94
2023-11-10T06:56:49.657Z,6.94
2023-11-10T06:57:49.773Z,6.97
2023-11-10T06:58:49.709Z,6.94
2023-11-10T06:59:49.765Z,6.94
2023-11-10T07:01:49.761Z,7.00
2023-11-10T07:02:51.908Z,6.99
2023-11-10T07:03:49.764Z,6.96
2023-11-10T07:04:49.685Z,7.07
2023-11-10T07:05:49.586Z,7.09
2023-11-10T07:06:49.612Z,6.96
2023-11-10T07:07:49.717Z,7.07
2023-11-10T07:08:49.594Z,7.09
2023-11-10T07:09:49.584Z,7.08
2023-11-10T07:10:49.525Z,7.11
2023-11-10T07:11:49.543Z,7.04
2023-11-10T07:12:49.541Z,7.01
2023-11-10T07:13:49.564Z,7.00
2023-11-10T07:14:49.511Z,7.05
2023-11-10T07:15:49.657Z,6.97
2023-11-10T07:16:49.863Z,7.00
2023-11-10T07:17:49.851Z,7.05
2023-11-10T07:19:49.592Z,7.05
2023-11-10T07:20:49.575Z,7.01
2023-11-10T07:21:49.507Z,7.01
2023-11-10T07:22:49.469Z,7.05
2023-11-10T07:23:49.468Z,7.04
2023-11-10T07:24:49.462Z,7.07
2023-11-10T07:25:49.460Z,7.09
2023-11-10T07:26:49.447Z,7.05
2023-11-10T07:27:49.504Z,7.00
2023-11-10T07:29:49.445Z,7.15
2023-11-10T07:30:49.450Z,7.14
2023-11-10T07:31:49.481Z,7.12
2023-11-10T07:32:49.476Z,7.08
2023-11-10T07:33:49.430Z,7.12
2023-11-10T07:34:49.406Z,6.97
2023-11-10T07:35:49.401Z,7.14
2023-11-10T07:36:49.425Z,7.12
2023-11-10T07:37:49.399Z,7.16
2023-11-10T07:38:49.395Z,7.18
2023-11-10T07:39:49.411Z,7.21
2023-11-10T07:40:49.388Z,7.14
2023-11-10T07:41:49.382Z,7.16
2023-11-10T07:42:49.386Z,7.18
2023-11-10T07:43:49.358Z,7.16
2023-11-10T07:44:49.361Z,7.18
2023-11-10T07:45:49.501Z,7.24
2023-11-10T07:47:49.425Z,7.15
2023-11-10T07:48:49.466Z,7.14
2023-11-10T07:49:49.365Z,7.23
2023-11-10T07:50:49.324Z,7.19
2023-11-10T07:51:49.327Z,7.19
2023-11-10T07:52:49.323Z,7.29
2023-11-10T07:53:49.310Z,7.33
2023-11-10T07:54:57.883Z,7.34
2023-11-10T07:55:49.301Z,7.26
2023-11-10T07:56:49.297Z,7.29
2023-11-10T07:57:49.585Z,7.21
2023-11-10T07:58:49.284Z,7.27
2023-11-10T07:59:49.280Z,7.24
2023-11-10T08:00:49.291Z,7.29
2023-11-10T08:01:49.296Z,7.26
2023-11-10T08:02:49.392Z,7.24
2023-11-10T08:03:49.293Z,7.23
2023-11-10T08:04:49.320Z,7.27
2023-11-10T08:05:49.254Z,7.26
2023-11-10T08:06:49.276Z,7.30
2023-11-10T08:07:49.246Z,7.26
2023-11-10T08:08:49.233Z,7.32
2023-11-10T08:09:49.284Z,7.23
2023-11-10T08:10:49.230Z,7.29
2023-11-10T08:11:52.915Z,7.19
2023-11-10T08:12:49.255Z,7.19
2023-11-10T08:13:49.220Z,7.19
2023-11-10T08:14:49.245Z,7.21
2023-11-10T08:15:49.375Z,7.30
2023-11-10T08:16:50.322Z,7.33
2023-11-10T08:17:49.256Z,7.26
2023-11-10T08:18:49.435Z,7.24
2023-11-10T08:19:49.301Z,7.27
2023-11-10T08:20:49.349Z,7.34
2023-11-10T08:21:49.530Z,7.32
2023-11-10T08:22:49.307Z,7.54
2023-11-10T08:23:49.294Z,7.44
2023-11-10T08:24:49.326Z,7.50
2023-11-10T08:25:49.275Z,7.42
2023-11-10T08:26:49.151Z,7.48
2023-11-10T08:27:49.187Z,7.48
2023-11-10T08:28:49.136Z,7.51
2023-11-10T08:29:49.136Z,7.45
2023-11-10T08:30:49.229Z,7.42
2023-11-10T08:31:49.177Z,7.48
2023-11-10T08:32:49.168Z,7.42
2023-11-10T08:33:49.776Z,7.48
2023-11-10T08:34:49.106Z,7.39
2023-11-10T08:35:49.109Z,7.52
2023-11-10T08:36:49.164Z,7.57
2023-11-10T08:37:49.106Z,7.55
2023-11-10T08:38:49.092Z,7.55
2023-11-10T08:39:49.117Z,7.55
2023-11-10T08:40:49.082Z,7.60
2023-11-10T08:41:49.081Z,7.55
2023-11-10T08:42:49.101Z,7.60
2023-11-10T08:43:49.087Z,7.58
2023-11-10T08:44:49.065Z,7.60
2023-11-10T08:45:49.205Z,7.57
2023-11-10T08:46:49.151Z,7.63
2023-11-10T08:47:49.135Z,7.74
2023-11-10T08:48:49.482Z,7.76
2023-11-10T08:49:49.070Z,7.73
2023-11-10T08:50:49.039Z,7.79
2023-11-10T08:51:49.058Z,7.81
2023-11-10T08:52:49.032Z,7.91
2023-11-10T08:53:49.046Z,7.88
2023-11-10T08:54:49.356Z,8.02
2023-11-10T08:55:49.385Z,8.02
2023-11-10T08:56:49.026Z,8.09
2023-11-10T08:57:49.073Z,8.07
2023-11-10T08:58:49.007Z,8.12
2023-11-10T08:59:49.010Z,8.06
2023-11-10T09:00:49.016Z,7.99
2023-11-10T09:01:49.030Z,8.02
2023-11-10T09:02:49.001Z,8.02
2023-11-10T09:03:49.055Z,7.91
2023-11-10T09:04:49.076Z,7.94
2023-11-10T09:05:48.974Z,7.89
2023-11-10T09:06:49.249Z,7.88
2023-11-10T09:07:48.964Z,7.91
2023-11-10T09:08:49.004Z,7.89
2023-11-10T09:09:48.994Z,7.86
2023-11-10T09:10:48.960Z,7.99
2023-11-10T09:11:48.948Z,7.99
2023-11-10T09:12:49.044Z,8.03
2023-11-10T09:13:51.586Z,8.07
2023-11-10T09:14:48.932Z,8.14
2023-11-10T09:15:56.874Z,8.13
2023-11-10T09:16:48.993Z,8.36
2023-11-10T09:17:48.944Z,8.31
2023-11-10T09:18:49.174Z,8.28
2023-11-10T09:19:48.934Z,8.32
2023-11-10T09:20:48.938Z,8.25
2023-11-10T09:21:48.937Z,8.24
2023-11-10T09:22:48.925Z,8.21
2023-11-10T09:23:48.898Z,8.32
2023-11-10T09:24:48.959Z,8.40
2023-11-10T09:25:48.890Z,8.36
2023-11-10T09:26:49.026Z,8.45
2023-11-10T09:27:48.951Z,8.61
2023-11-10T09:28:48.887Z,8.57
2023-11-10T09:29:48.889Z,8.58
2023-11-10T09:30:48.944Z,8.47
2023-11-10T09:31:48.913Z,8.45
2023-11-10T09:32:48.938Z,8.52
2023-11-10T09:33:48.965Z,8.58
2023-11-10T09:34:48.871Z,8.45
2023-11-10T09:35:48.858Z,8.49
2023-11-10T09:36:48.936Z,8.50
2023-11-10T09:37:49.008Z,8.45
2023-11-10T09:38:48.861Z,8.55
2023-11-10T09:39:48.935Z,8.45
2023-11-10T09:40:50.060Z,8.47
2023-11-10T09:41:48.829Z,8.45
2023-11-10T09:42:48.952Z,8.46
2023-11-10T09:43:48.821Z,8.43
2023-11-10T09:44:48.817Z,8.45
2023-11-10T09:45:48.939Z,8.50
2023-11-10T09:46:48.828Z,8.50
2023-11-10T09:47:48.948Z,8.60
2023-11-10T09:48:48.958Z,8.64
2023-11-10T09:49:48.800Z,8.60
2023-11-10T09:50:48.790Z,8.67
2023-11-10T09:51:48.821Z,8.63
2023-11-10T09:52:48.783Z,8.60
2023-11-10T09:53:48.793Z,8.64
2023-11-10T09:54:48.794Z,8.70
2023-11-10T09:55:48.773Z,8.91
2023-11-10T09:56:48.775Z,8.89
2023-11-10T09:57:48.787Z,8.91
2023-11-10T09:58:48.776Z,8.70
2023-11-10T09:59:48.774Z,8.75
2023-11-10T10:00:48.794Z,8.71
2023-11-10T10:01:48.769Z,8.75
2023-11-10T10:02:48.936Z,8.76
2023-11-10T10:03:48.820Z,8.80
2023-11-10T10:04:48.778Z,8.73
2023-11-10T10:05:48.740Z,8.68
2023-11-10T10:06:48.776Z,8.63
2023-11-10T10:07:48.758Z,8.68
2023-11-10T10:08:48.731Z,8.76
2023-11-10T10:09:48.775Z,8.63
2023-11-10T10:10:48.727Z,8.64
2023-11-10T10:11:48.724Z,8.67
2023-11-10T10:12:48.743Z,8.55
2023-11-10T10:13:48.721Z,8.67
2023-11-10T10:14:48.708Z,8.67
2023-11-10T10:15:48.776Z,8.75
2023-11-10T10:16:48.728Z,8.60
2023-11-10T10:17:48.719Z,8.63
2023-11-10T10:18:48.740Z,8.75
2023-11-10T10:19:48.694Z,8.64
2023-11-10T10:20:48.688Z,8.67
2023-11-10T10:21:48.757Z,8.63
2023-11-10T10:22:48.700Z,8.75
2023-11-10T10:23:48.677Z,8.71
2023-11-10T10:24:48.740Z,8.60
2023-11-10T10:25:48.672Z,8.63
2023-11-10T10:26:48.690Z,8.60
2023-11-10T10:27:48.716Z,8.52
2023-11-10T10:28:48.665Z,8.65
2023-11-10T10:29:48.659Z,8.64
2023-11-10T10:30:48.840Z,8.67
2023-11-10T10:31:48.795Z,8.65
2023-11-10T10:32:48.660Z,8.67
2023-11-10T10:33:48.730Z,8.67
2023-11-10T10:34:48.640Z,8.65
2023-11-10T10:35:48.638Z,8.63
2023-11-10T10:36:48.646Z,8.79
2023-11-10T10:37:48.626Z,8.75
2023-11-10T10:38:48.628Z,8.73
2023-11-10T10:39:48.663Z,8.75
2023-11-10T10:40:48.628Z,8.68
2023-11-10T10:41:48.657Z,8.76
2023-11-10T10:42:48.644Z,8.64
2023-11-10T10:43:58.308Z,8.65
2023-11-10T10:44:48.603Z,8.64
2023-11-10T10:45:48.625Z,8.64
2023-11-10T10:46:48.653Z,8.52
2023-11-10T10:47:48.635Z,8.58
2023-11-10T10:48:48.622Z,8.58
2023-11-10T10:49:48.595Z,8.65
2023-11-10T10:50:48.586Z,8.61
2023-11-10T10:51:48.598Z,8.54
2023-11-10T10:52:48.591Z,8.60
2023-11-10T10:53:48.592Z,8.60
2023-11-10T10:54:48.594Z,8.61
2023-11-10T10:55:48.599Z,8.73
2023-11-10T10:56:48.564Z,8.75
2023-11-10T10:57:48.649Z,8.80
2023-11-10T10:58:48.564Z,8.86
2023-11-10T10:59:48.549Z,8.96
2023-11-10T11:00:48.592Z,8.86
2023-11-10T11:01:48.615Z,8.93
2023-11-10T11:02:48.636Z,8.93
2023-11-10T11:03:48.701Z,9.06
2023-11-10T11:04:48.529Z,9.04
2023-11-10T11:05:48.529Z,9.19
2023-11-10T11:06:48.559Z,9.17
2023-11-10T11:07:48.522Z,9.19
2023-11-10T11:08:48.516Z,9.24
2023-11-10T11:09:48.559Z,9.32
2023-11-10T11:10:48.524Z,9.38
2023-11-10T11:11:48.534Z,9.38
2023-11-10T11:12:48.557Z,9.35
2023-11-10T11:13:48.537Z,9.35
2023-11-10T11:14:48.503Z,9.31
2023-11-10T11:15:48.541Z,9.38
2023-11-10T11:16:48.557Z,9.27
2023-11-10T11:17:48.531Z,9.35
2023-11-10T11:18:48.553Z,9.37
2023-11-10T11:19:48.495Z,9.42
2023-11-10T11:20:48.478Z,9.34
2023-11-10T11:21:48.501Z,9.27
2023-11-10T11:22:48.469Z,9.27
2023-11-10T11:23:48.468Z,9.32
2023-11-10T11:24:48.480Z,9.30
2023-11-10T11:25:48.489Z,9.35
2023-11-10T11:26:48.464Z,9.34
2023-11-10T11:27:48.465Z,9.35
2023-11-10T11:28:48.455Z,9.38
2023-11-10T11:29:48.452Z,9.37
2023-11-10T11:30:48.502Z,9.38
2023-11-10T11:31:48.615Z,9.41
2023-11-10T11:32:48.462Z,9.37
2023-11-10T11:33:48.478Z,9.27
2023-11-10T11:34:48.434Z,9.31
2023-11-10T11:35:49.123Z,9.17
2023-11-10T11:36:48.497Z,9.20
2023-11-10T11:37:48.439Z,9.22
2023-11-10T11:38:48.506Z,9.19
2023-11-10T11:39:48.464Z,9.15
2023-11-10T11:40:48.412Z,9.22
2023-11-10T11:41:48.413Z,9.01
2023-11-10T11:42:48.423Z,9.03
2023-11-10T11:43:48.397Z,9.01
2023-11-10T11:44:48.406Z,9.13
2023-11-10T11:45:48.418Z,9.08
2023-11-10T11:46:48.442Z,9.03
2023-11-10T11:47:48.393Z,9.04
2023-11-10T11:48:48.437Z,9.10
2023-11-10T11:49:48.377Z,9.04
2023-11-10T11:50:48.369Z,9.10
2023-11-10T11:51:48.379Z,9.01
2023-11-10T11:52:48.364Z,9.01
2023-11-10T11:53:48.361Z,9.08
2023-11-10T11:54:48.382Z,9.12
2023-11-10T11:55:48.357Z,8.98
2023-11-10T11:56:48.360Z,9.10
2023-11-10T11:57:48.460Z,9.03
2023-11-10T11:58:48.364Z,8.98
2023-11-10T11:59:48.339Z,9.04
2023-11-10T12:00:48.372Z,9.06
2023-11-10T12:01:48.437Z,9.01
2023-11-10T12:02:48.374Z,9.04
2023-11-10T12:03:48.353Z,9.00
2023-11-10T12:04:48.528Z,8.93
2023-11-10T12:05:48.313Z,8.97
2023-11-10T12:06:48.330Z,9.00
2023-11-10T12:07:48.309Z,8.91
2023-11-10T12:08:48.304Z,8.89
2023-11-10T12:09:48.342Z,8.88
2023-11-10T12:10:48.297Z,8.82
2023-11-10T12:11:48.307Z,8.82
2023-11-10T12:12:48.307Z,8.85
2023-11-10T12:13:48.300Z,8.89
2023-11-10T12:14:48.282Z,8.79
2023-11-10T12:15:48.455Z,8.91
2023-11-10T12:16:48.310Z,8.83
2023-11-10T12:17:48.319Z,8.78
2023-11-10T12:18:48.296Z,8.85
2023-11-10T12:19:48.264Z,8.78
2023-11-10T12:20:48.271Z,8.76
2023-11-10T12:21:48.332Z,8.79
2023-11-10T12:22:48.260Z,8.73
2023-11-10T12:23:48.252Z,8.68
2023-11-10T12:24:48.262Z,8.64
2023-11-10T12:25:48.242Z,8.58
2023-11-10T12:26:48.247Z,8.54
2023-11-10T12:27:48.289Z,8.49
2023-11-10T12:28:48.242Z,8.47
2023-11-10T12:29:48.230Z,8.39
2023-11-10T12:30:48.271Z,8.43
2023-11-10T12:31:48.227Z,8.45
2023-11-10T12:32:48.263Z,8.39
2023-11-10T12:33:48.286Z,8.40
2023-11-10T12:34:48.238Z,8.42
2023-11-10T12:35:48.217Z,8.32
2023-11-10T12:36:48.224Z,8.31
2023-11-10T12:37:48.211Z,8.29
2023-11-10T12:38:48.214Z,8.25
2023-11-10T12:39:48.236Z,8.24
2023-11-10T12:40:48.196Z,8.20
2023-11-10T12:41:48.197Z,8.17
2023-11-10T12:42:48.238Z,8.14
2023-11-10T12:43:48.192Z,8.20
2023-11-10T12:44:48.199Z,8.04
2023-11-10T12:45:48.226Z,8.02
2023-11-10T12:46:48.202Z,8.03
2023-11-10T12:47:56.899Z,7.96
2023-11-10T12:48:48.228Z,7.88
2023-11-10T12:49:48.173Z,7.84
2023-11-10T12:50:48.158Z,7.81
2023-11-10T12:51:48.179Z,7.79
2023-11-10T12:52:48.153Z,7.76
2023-11-10T12:53:48.151Z,7.76
2023-11-10T12:54:48.180Z,7.79
2023-11-10T12:55:48.137Z,7.76
2023-11-10T12:56:48.137Z,7.84
2023-11-10T12:57:48.176Z,7.82
2023-11-10T12:58:48.127Z,7.79
2023-11-10T12:59:48.119Z,7.77
2023-11-10T13:00:48.153Z,7.76
2023-11-10T13:01:48.134Z,7.81
2023-11-10T13:02:48.170Z,7.85
2023-11-10T13:03:48.239Z,7.81
2023-11-10T13:04:48.103Z,7.81
2023-11-10T13:05:48.106Z,7.84
2023-11-10T13:06:48.121Z,7.89
2023-11-10T13:07:48.106Z,7.92
2023-11-10T13:08:48.085Z,7.84
2023-11-10T13:09:48.132Z,7.76
2023-11-10T13:10:48.078Z,7.94
2023-11-10T13:11:48.069Z,7.77
2023-11-10T13:12:48.110Z,7.82
2023-11-10T13:13:48.071Z,7.71
2023-11-10T13:14:48.063Z,7.74
2023-11-10T13:15:48.175Z,7.86
2023-11-10T13:16:48.074Z,7.81
2023-11-10T13:17:48.103Z,7.84
2023-11-10T13:18:48.076Z,7.85
2023-11-10T13:19:48.136Z,7.89
2023-11-10T13:20:48.205Z,7.85
2023-11-10T13:21:48.281Z,7.74
2023-11-10T13:22:48.155Z,7.74
2023-11-10T13:23:48.139Z,7.82
2023-11-10T13:25:48.140Z,7.63
2023-11-10T13:26:48.069Z,7.58